createdAt,value
2017-07-16T00:00:30.433Z,2.10
2017-07-16T00:02:58.001Z,1.90
2017-07-16T00:05:25.523Z,2.43
2017-07-16T00:07:53.066Z,2.20
2017-07-16T00:10:21.384Z,2.30
2017-07-16T00:12:49.734Z,2.27
2017-07-16T00:15:17.424Z,2.00
2017-07-16T00:17:45.017Z,2.33
2017-07-16T00:20:12.541Z,2.07
2017-07-16T00:22:40.109Z,1.90
2017-07-16T00:25:07.680Z,1.60
2017-07-16T00:27:35.238Z,1.80
2017-07-16T00:30:02.853Z,1.83
2017-07-16T00:32:30.397Z,1.60
2017-07-16T00:34:57.991Z,1.80
2017-07-16T00:37:25.556Z,2.37
2017-07-16T00:39:53.121Z,2.00
2017-07-16T00:42:20.661Z,2.37
2017-07-16T00:44:48.206Z,1.80
2017-07-16T00:47:15.746Z,1.90
2017-07-16T00:52:17.213Z,2.40
2017-07-16T00:54:44.793Z,2.80
2017-07-16T00:57:12.341Z,1.90
2017-07-16T00:59:39.900Z,1.73
2017-07-16T01:02:07.487Z,1.90
2017-07-16T01:04:35.800Z,2.27
2017-07-16T01:07:03.337Z,1.80
2017-07-16T01:09:31.143Z,1.83
2017-07-16T01:11:58.714Z,1.90
2017-07-16T01:14:26.245Z,1.87
2017-07-16T01:16:53.838Z,1.83
2017-07-16T01:19:21.370Z,1.80
2017-07-16T01:21:48.953Z,1.50
2017-07-16T01:24:16.502Z,1.70
2017-07-16T01:26:44.066Z,1.80
2017-07-16T01:29:11.636Z,1.93
2017-07-16T01:31:39.193Z,1.90
2017-07-16T01:34:06.767Z,2.27
2017-07-16T01:36:34.320Z,2.03
2017-07-16T01:39:01.867Z,1.90
2017-07-16T01:41:29.409Z,1.70
2017-07-16T01:43:56.988Z,1.77
2017-07-16T01:46:24.537Z,1.80
2017-07-16T01:48:52.178Z,1.63
2017-07-16T01:51:19.725Z,1.90
2017-07-16T01:53:47.270Z,2.00
2017-07-16T01:56:15.548Z,1.70
2017-07-16T01:58:43.092Z,1.90
2017-07-16T02:01:10.700Z,1.73
2017-07-16T02:03:38.217Z,1.80
2017-07-16T02:06:05.810Z,1.90
2017-07-16T02:08:33.338Z,2.00
2017-07-16T02:11:00.871Z,2.27
2017-07-16T02:13:28.427Z,1.80
2017-07-16T02:15:55.964Z,1.77
2017-07-16T02:18:23.477Z,1.80
2017-07-16T02:20:51.056Z,1.90
2017-07-16T02:23:18.616Z,2.30
2017-07-16T02:25:46.193Z,2.23
2017-07-16T02:28:13.729Z,1.80
2017-07-16T02:30:41.305Z,1.90
2017-07-16T02:33:08.828Z,2.10
2017-07-16T02:35:36.359Z,1.57
2017-07-16T02:38:03.921Z,2.30
2017-07-16T02:40:31.450Z,1.87
2017-07-16T02:42:59.009Z,2.17
2017-07-16T02:45:26.590Z,1.73
2017-07-16T02:47:54.131Z,1.70
2017-07-16T02:50:23.657Z,1.77
2017-07-16T02:52:51.204Z,1.90
2017-07-16T02:55:18.718Z,1.83
2017-07-16T02:57:46.254Z,2.03
2017-07-16T03:00:13.793Z,1.90
2017-07-16T03:02:41.402Z,1.70
2017-07-16T03:05:08.926Z,2.13
2017-07-16T03:07:36.511Z,2.00
2017-07-16T03:10:04.028Z,2.10
2017-07-16T03:12:31.583Z,2.07
2017-07-16T03:14:59.150Z,2.17
2017-07-16T03:17:26.704Z,2.00
2017-07-16T03:19:54.266Z,2.20
2017-07-16T03:22:21.808Z,2.10
2017-07-16T03:25:04.283Z,1.73
2017-07-16T03:27:31.811Z,1.90
2017-07-16T03:29:59.367Z,1.90
2017-07-16T03:32:26.938Z,2.20
2017-07-16T03:34:54.494Z,1.70
2017-07-16T03:37:22.046Z,2.40
2017-07-16T03:39:49.604Z,2.00
2017-07-16T03:42:17.140Z,2.00
2017-07-16T03:44:44.680Z,2.20
2017-07-16T03:47:12.207Z,2.10
2017-07-16T03:49:40.588Z,2.10
2017-07-16T03:52:08.122Z,2.20
2017-07-16T03:54:35.651Z,2.03
2017-07-16T03:57:03.217Z,2.03
2017-07-16T03:59:30.728Z,2.23
2017-07-16T04:01:59.073Z,1.93
2017-07-16T04:04:26.602Z,2.10
2017-07-16T04:06:54.137Z,2.37
2017-07-16T04:09:21.717Z,2.20
2017-07-16T04:11:49.258Z,2.10
2017-07-16T04:14:16.857Z,1.80
2017-07-16T04:16:44.400Z,2.20
2017-07-16T04:19:11.954Z,1.70
2017-07-16T04:21:39.520Z,2.07
2017-07-16T04:24:07.091Z,1.90
2017-07-16T04:26:34.708Z,2.10
2017-07-16T04:29:02.992Z,2.37
2017-07-16T04:31:30.514Z,2.37
2017-07-16T04:33:58.052Z,2.20
2017-07-16T04:36:25.673Z,2.00
2017-07-16T04:38:53.225Z,2.03
2017-07-16T04:41:20.774Z,2.10
2017-07-16T04:43:48.313Z,2.17
2017-07-16T04:46:15.883Z,2.90
2017-07-16T04:48:43.442Z,1.73
2017-07-16T04:51:10.985Z,2.03
2017-07-16T04:53:38.532Z,2.23
2017-07-16T04:56:06.053Z,2.47
2017-07-16T04:58:33.594Z,2.43
2017-07-16T05:01:01.126Z,2.00
2017-07-16T05:03:28.658Z,2.13
2017-07-16T05:05:56.250Z,2.40
2017-07-16T05:08:24.554Z,2.30
2017-07-16T05:10:52.868Z,2.50
2017-07-16T05:13:20.406Z,2.20
2017-07-16T05:15:47.945Z,2.50
2017-07-16T05:18:15.465Z,2.27
2017-07-16T05:20:43.016Z,2.50
2017-07-16T05:23:10.547Z,2.30
2017-07-16T05:25:38.109Z,2.50
2017-07-16T05:28:05.661Z,2.43
2017-07-16T05:30:33.212Z,2.67
2017-07-16T05:33:01.501Z,2.40
2017-07-16T05:35:29.061Z,2.60
2017-07-16T05:37:56.610Z,2.40
2017-07-16T05:40:24.126Z,2.40
2017-07-16T05:42:51.686Z,2.40
2017-07-16T05:45:19.245Z,2.73
2017-07-16T05:47:46.997Z,2.50
2017-07-16T05:50:14.589Z,2.93
2017-07-16T05:52:42.132Z,2.60
2017-07-16T05:55:09.674Z,2.70
2017-07-16T05:57:37.257Z,2.60
2017-07-16T06:00:04.785Z,2.53
2017-07-16T06:02:32.346Z,2.70
2017-07-16T06:04:59.937Z,2.70
2017-07-16T06:07:27.525Z,2.30
2017-07-16T06:09:55.081Z,2.70
2017-07-16T06:12:23.464Z,2.60
2017-07-16T06:14:50.993Z,3.00
2017-07-16T06:17:18.537Z,2.50
2017-07-16T06:19:46.085Z,2.80
2017-07-16T06:22:13.662Z,3.03
2017-07-16T06:24:41.197Z,2.77
2017-07-16T06:27:08.752Z,2.77
2017-07-16T06:29:36.331Z,2.90
2017-07-16T06:32:03.845Z,3.03
2017-07-16T06:34:31.370Z,2.67
2017-07-16T06:36:58.936Z,2.83
2017-07-16T06:39:26.525Z,2.90
2017-07-16T06:41:54.065Z,2.90
2017-07-16T06:44:21.690Z,2.83
2017-07-16T06:46:49.233Z,3.23
2017-07-16T06:49:16.824Z,3.37
2017-07-16T06:51:44.377Z,3.20
2017-07-16T06:54:11.948Z,2.90
2017-07-16T06:56:39.512Z,3.17
2017-07-16T06:59:07.081Z,3.10
2017-07-16T07:01:34.612Z,3.07
2017-07-16T07:04:02.138Z,2.70
2017-07-16T07:06:29.768Z,3.30
2017-07-16T07:08:58.099Z,3.10
2017-07-16T07:11:25.639Z,3.50
2017-07-16T07:13:53.167Z,2.70
2017-07-16T07:16:21.544Z,3.20
2017-07-16T07:18:49.096Z,3.10
2017-07-16T07:21:16.656Z,3.20
2017-07-16T07:23:44.226Z,3.17
2017-07-16T07:26:11.793Z,2.87
2017-07-16T07:28:39.329Z,3.17
2017-07-16T07:31:06.889Z,3.53
2017-07-16T07:33:35.240Z,2.93
2017-07-16T07:36:02.800Z,3.27
2017-07-16T07:38:30.373Z,3.30
2017-07-16T07:40:57.905Z,2.70
2017-07-16T07:43:25.462Z,3.40
2017-07-16T07:45:53.036Z,3.17
2017-07-16T07:48:20.578Z,3.00
2017-07-16T07:50:48.098Z,2.90
2017-07-16T07:53:15.667Z,3.27
2017-07-16T07:55:43.258Z,2.97
2017-07-16T07:58:10.849Z,3.13
2017-07-16T08:00:38.482Z,2.90
2017-07-16T08:03:06.012Z,3.13
2017-07-16T08:05:33.559Z,3.40
2017-07-16T08:08:01.073Z,3.40
2017-07-16T08:10:28.621Z,3.70
2017-07-16T08:12:56.177Z,3.33
2017-07-16T08:15:23.729Z,3.20
2017-07-16T08:17:51.265Z,3.13
2017-07-16T08:20:18.821Z,4.17
2017-07-16T08:22:46.332Z,3.63
2017-07-16T08:25:13.893Z,3.23
2017-07-16T08:27:41.425Z,3.80
2017-07-16T08:30:08.953Z,3.60
2017-07-16T08:32:36.490Z,3.30
2017-07-16T08:35:04.091Z,3.03
2017-07-16T08:37:31.666Z,3.00
2017-07-16T08:39:59.189Z,3.57
2017-07-16T08:42:26.738Z,4.37
2017-07-16T08:44:54.272Z,3.57
2017-07-16T08:47:21.827Z,3.57
2017-07-16T08:49:49.384Z,3.70
2017-07-16T08:52:16.959Z,3.80
2017-07-16T08:54:44.513Z,3.90
2017-07-16T08:57:12.072Z,3.63
2017-07-16T08:59:39.593Z,3.70
2017-07-16T09:02:07.155Z,3.30
2017-07-16T09:04:34.698Z,3.90
2017-07-16T09:07:02.296Z,3.40
2017-07-16T09:09:29.838Z,3.40
2017-07-16T09:11:57.386Z,3.80
2017-07-16T09:14:24.949Z,4.03
2017-07-16T09:16:52.478Z,3.60
2017-07-16T09:19:20.034Z,3.77
2017-07-16T09:21:47.595Z,3.63
2017-07-16T09:24:15.127Z,3.87
2017-07-16T09:26:42.756Z,3.40
2017-07-16T09:29:10.300Z,3.63
2017-07-16T09:31:37.916Z,4.03
2017-07-16T09:34:05.468Z,3.90
2017-07-16T09:36:33.019Z,3.80
2017-07-16T09:39:00.552Z,4.00
2017-07-16T09:41:28.093Z,4.27
2017-07-16T09:43:55.618Z,3.60
2017-07-16T09:46:23.226Z,3.70
2017-07-16T09:48:50.770Z,3.80
2017-07-16T09:51:18.321Z,3.40
2017-07-16T09:53:45.861Z,4.47
2017-07-16T09:56:14.197Z,4.53
2017-07-16T09:58:41.753Z,4.40
2017-07-16T10:01:09.340Z,4.40
2017-07-16T10:03:36.868Z,4.50
2017-07-16T10:06:04.428Z,4.73
2017-07-16T10:08:32.046Z,4.63
2017-07-16T10:10:59.573Z,5.03
2017-07-16T10:13:27.142Z,4.83
2017-07-16T10:15:54.669Z,5.10
2017-07-16T10:18:22.208Z,4.87
2017-07-16T10:20:49.786Z,5.50
2017-07-16T10:23:17.412Z,5.50
2017-07-16T10:25:44.947Z,5.67
2017-07-16T10:28:13.277Z,6.00
2017-07-16T10:30:41.597Z,6.90
2017-07-16T10:33:09.357Z,6.60
2017-07-16T10:35:36.936Z,7.10
2017-07-16T10:38:04.449Z,7.90
2017-07-16T10:40:32.077Z,7.40
2017-07-16T10:42:59.589Z,7.33
2017-07-16T10:45:27.137Z,7.77
2017-07-16T10:47:54.801Z,8.33
2017-07-16T10:50:22.385Z,8.40
2017-07-16T10:52:49.905Z,9.17
2017-07-16T10:55:17.474Z,9.40
2017-07-16T10:57:45.025Z,9.47
2017-07-16T11:00:12.631Z,9.50
2017-07-16T11:02:40.273Z,9.90
2017-07-16T11:05:07.877Z,8.37
2017-07-16T11:07:35.414Z,9.50
2017-07-16T11:10:02.956Z,9.00
2017-07-16T11:12:30.496Z,9.30
2017-07-16T11:14:58.053Z,10.03
2017-07-16T11:17:25.610Z,9.87
2017-07-16T11:19:53.140Z,9.80
2017-07-16T11:22:20.764Z,9.00
2017-07-16T11:24:48.332Z,9.50
2017-07-16T11:27:15.924Z,9.73
2017-07-16T11:29:43.467Z,9.03
2017-07-16T11:32:11.045Z,8.90
2017-07-16T11:34:38.614Z,9.13
2017-07-16T11:37:06.182Z,9.10
2017-07-16T11:39:33.753Z,10.10
2017-07-16T11:42:01.295Z,8.90
2017-07-16T11:44:28.870Z,9.10
2017-07-16T11:46:56.452Z,9.50
2017-07-16T11:49:24.015Z,9.43
2017-07-16T11:51:51.595Z,9.60
2017-07-16T11:54:19.176Z,9.23
2017-07-16T11:56:46.745Z,9.70
2017-07-16T11:59:14.508Z,9.67
2017-07-16T12:01:42.053Z,9.63
2017-07-16T12:04:10.274Z,9.50
2017-07-16T12:06:38.146Z,9.40
2017-07-16T12:09:05.782Z,9.33
2017-07-16T12:11:33.379Z,9.87
2017-07-16T12:14:00.921Z,9.53
2017-07-16T12:16:28.502Z,9.57
2017-07-16T12:18:56.066Z,8.97
2017-07-16T12:21:23.622Z,9.53
2017-07-16T12:23:51.222Z,9.37
2017-07-16T12:26:18.792Z,8.80
2017-07-16T12:28:46.334Z,8.97
2017-07-16T12:31:13.944Z,8.70
2017-07-16T12:33:41.498Z,8.63
2017-07-16T12:36:09.995Z,8.90
2017-07-16T12:38:37.617Z,9.43
2017-07-16T12:41:05.160Z,9.50
2017-07-16T12:43:32.764Z,8.97
2017-07-16T12:46:00.366Z,9.43
2017-07-16T12:48:27.933Z,9.40
2017-07-16T12:50:55.473Z,9.90
2017-07-16T12:53:23.081Z,9.57
2017-07-16T12:55:50.663Z,9.60
2017-07-16T12:58:18.245Z,9.17
2017-07-16T13:00:45.801Z,9.47
2017-07-16T13:03:13.410Z,8.60
2017-07-16T13:05:40.974Z,9.37
2017-07-16T13:08:08.566Z,8.73
2017-07-16T13:10:36.193Z,9.07
2017-07-16T13:13:03.754Z,9.77
2017-07-16T13:15:31.289Z,8.63
2017-07-16T13:17:58.863Z,8.87
2017-07-16T13:20:26.406Z,8.20
2017-07-16T13:22:53.949Z,8.57
2017-07-16T13:25:21.521Z,8.00
2017-07-16T13:27:49.057Z,7.87
2017-07-16T13:30:16.830Z,8.10
2017-07-16T13:32:44.458Z,8.23
2017-07-16T13:35:12.011Z,8.03
2017-07-16T13:37:39.525Z,8.00
2017-07-16T13:40:07.082Z,8.07
2017-07-16T13:42:34.640Z,7.70
2017-07-16T13:45:02.209Z,8.50
2017-07-16T13:47:29.758Z,9.03
2017-07-16T13:49:57.312Z,8.67
2017-07-16T13:52:24.872Z,9.57
2017-07-16T13:54:52.452Z,8.60
2017-07-16T13:57:20.084Z,9.00
2017-07-16T13:59:47.685Z,7.70
2017-07-16T14:02:15.373Z,8.40
2017-07-16T14:04:42.947Z,8.37
2017-07-16T14:07:10.515Z,8.30
2017-07-16T14:09:38.103Z,8.23
2017-07-16T14:12:05.700Z,8.90
2017-07-16T14:14:33.276Z,8.23
2017-07-16T14:17:01.410Z,8.20
2017-07-16T14:19:29.023Z,8.00
2017-07-16T14:21:57.283Z,9.80
2017-07-16T14:24:24.837Z,8.50
2017-07-16T14:26:52.407Z,8.57
2017-07-16T14:29:20.045Z,8.80
2017-07-16T14:31:47.770Z,8.30
2017-07-16T14:34:15.521Z,8.00
2017-07-16T14:36:43.907Z,8.70
2017-07-16T14:39:11.493Z,8.03
2017-07-16T14:41:39.134Z,8.37
2017-07-16T14:44:06.680Z,7.97
2017-07-16T14:46:34.363Z,8.00
2017-07-16T14:49:01.913Z,7.80
2017-07-16T14:51:29.478Z,8.77
2017-07-16T14:53:57.091Z,7.60
2017-07-16T14:56:24.678Z,7.60
2017-07-16T14:58:52.213Z,8.00
2017-07-16T15:01:19.886Z,7.93
2017-07-16T15:03:47.433Z,7.70
2017-07-16T15:06:15.009Z,8.40
2017-07-16T15:08:42.597Z,8.53
2017-07-16T15:11:10.136Z,8.73
2017-07-16T15:13:37.743Z,8.70
2017-07-16T15:16:05.294Z,8.40
2017-07-16T15:18:32.923Z,7.90
2017-07-16T15:21:00.490Z,8.70
2017-07-16T15:23:28.069Z,8.13
2017-07-16T15:25:55.626Z,8.43
2017-07-16T15:28:23.231Z,7.53
2017-07-16T15:30:50.781Z,8.00
2017-07-16T15:33:18.363Z,8.23
2017-07-16T15:35:45.990Z,8.13
2017-07-16T15:38:13.536Z,8.00
2017-07-16T15:40:41.091Z,8.00
2017-07-16T15:43:08.674Z,8.47
2017-07-16T15:45:36.254Z,8.17
2017-07-16T15:48:03.891Z,8.30
2017-07-16T15:50:31.498Z,8.33
2017-07-16T15:52:59.042Z,8.57
2017-07-16T15:55:26.670Z,8.07
2017-07-16T15:57:54.200Z,8.67
2017-07-16T16:00:21.789Z,8.47
2017-07-16T16:02:49.318Z,7.90
2017-07-16T16:05:16.938Z,7.83
2017-07-16T16:07:44.606Z,7.80
2017-07-16T16:10:12.143Z,7.70
2017-07-16T16:12:39.799Z,7.30
2017-07-16T16:15:07.408Z,7.60
2017-07-16T16:17:34.991Z,8.20
2017-07-16T16:20:02.560Z,7.50
2017-07-16T16:22:30.137Z,7.80
2017-07-16T16:24:57.730Z,7.63
2017-07-16T16:27:25.275Z,7.43
2017-07-16T16:29:52.897Z,7.90
2017-07-16T16:32:20.504Z,7.20
2017-07-16T16:34:48.058Z,7.40
2017-07-16T16:37:15.633Z,7.00
2017-07-16T16:39:43.252Z,7.47
2017-07-16T16:42:10.842Z,6.77
2017-07-16T16:44:38.381Z,7.67
2017-07-16T16:47:05.931Z,6.83
2017-07-16T16:49:33.533Z,7.53
2017-07-16T16:52:01.182Z,7.70
2017-07-16T16:54:28.783Z,7.30
2017-07-16T16:56:56.339Z,7.10
2017-07-16T16:59:23.882Z,7.00
2017-07-16T17:01:51.426Z,7.30
2017-07-16T17:04:19.040Z,7.33
2017-07-16T17:06:46.614Z,7.37
2017-07-16T17:09:14.268Z,7.10
2017-07-16T17:11:41.850Z,6.93
2017-07-16T17:14:09.442Z,6.20
2017-07-16T17:16:36.975Z,7.17
2017-07-16T17:19:04.587Z,6.67
2017-07-16T17:21:32.233Z,6.80
2017-07-16T17:23:59.786Z,6.40
2017-07-16T17:26:27.345Z,5.97
2017-07-16T17:28:54.935Z,6.20
2017-07-16T17:31:22.606Z,5.73
2017-07-16T17:33:50.200Z,6.27
2017-07-16T17:36:17.778Z,5.47
2017-07-16T17:38:45.318Z,5.30
2017-07-16T17:41:12.881Z,5.70
2017-07-16T17:43:40.446Z,5.70
2017-07-16T17:46:08.094Z,6.23
2017-07-16T17:48:35.710Z,5.60
2017-07-16T17:51:03.255Z,5.23
2017-07-16T17:53:30.817Z,5.07
2017-07-16T17:55:58.437Z,4.80
2017-07-16T17:58:25.997Z,5.10
2017-07-16T18:00:53.522Z,5.10
2017-07-16T18:03:21.082Z,5.03
2017-07-16T18:05:48.616Z,4.50
2017-07-16T18:08:16.178Z,4.30
2017-07-16T18:10:43.737Z,4.57
2017-07-16T18:13:11.346Z,4.27
2017-07-16T18:15:38.894Z,3.90
2017-07-16T18:18:06.501Z,4.23
2017-07-16T18:20:34.120Z,4.37
2017-07-16T18:23:01.650Z,3.60
2017-07-16T18:25:29.214Z,3.90
2017-07-16T18:27:56.774Z,4.07
2017-07-16T18:30:24.354Z,4.30
2017-07-16T18:32:51.921Z,3.30
2017-07-16T18:35:19.465Z,3.57
2017-07-16T18:37:46.976Z,3.93
2017-07-16T18:40:14.549Z,3.20
2017-07-16T18:42:42.402Z,3.60
2017-07-16T18:45:09.995Z,2.90
2017-07-16T18:47:37.548Z,3.20
2017-07-16T18:50:05.078Z,3.43
2017-07-16T18:52:32.669Z,3.37
2017-07-16T18:55:00.211Z,2.67
2017-07-16T18:57:27.762Z,2.53
2017-07-16T18:59:55.285Z,2.90
2017-07-16T19:02:22.828Z,3.00
2017-07-16T19:04:50.413Z,3.17
2017-07-16T19:07:17.997Z,4.73
2017-07-16T19:09:45.542Z,6.67
2017-07-16T19:12:13.105Z,8.00
2017-07-16T19:14:40.633Z,9.97
2017-07-16T19:17:08.227Z,9.27
2017-07-16T19:19:35.944Z,10.10
2017-07-16T19:22:03.514Z,14.20
2017-07-16T19:24:31.065Z,21.70
2017-07-16T19:26:58.687Z,29.77
2017-07-16T19:29:26.291Z,29.37
2017-07-16T19:31:53.829Z,30.20
2017-07-16T19:34:21.404Z,30.60
2017-07-16T19:36:48.942Z,29.43
2017-07-16T19:39:17.441Z,25.73
2017-07-16T19:41:44.975Z,25.07
2017-07-16T19:44:12.557Z,23.37
2017-07-16T19:46:40.098Z,22.43
2017-07-16T19:49:07.658Z,19.70
2017-07-16T19:51:35.186Z,17.20
2017-07-16T19:54:02.766Z,17.00
2017-07-16T19:56:30.359Z,15.80
2017-07-16T19:58:57.930Z,14.10
2017-07-16T20:01:25.513Z,12.50
2017-07-16T20:03:53.077Z,10.83
2017-07-16T20:06:24.584Z,9.53
2017-07-16T20:08:52.125Z,9.80
2017-07-16T20:11:19.757Z,8.70
2017-07-16T20:13:47.283Z,8.13
2017-07-16T20:16:14.926Z,7.37
2017-07-16T20:18:42.530Z,6.27
2017-07-16T20:21:10.075Z,6.37
2017-07-16T20:23:37.637Z,6.00
2017-07-16T20:26:05.257Z,5.80
2017-07-16T20:28:32.789Z,4.93
2017-07-16T20:31:00.401Z,4.90
2017-07-16T20:33:28.034Z,4.80
2017-07-16T20:35:55.592Z,4.90
2017-07-16T20:38:23.149Z,4.10
2017-07-16T20:40:50.697Z,4.67
2017-07-16T20:43:18.250Z,4.03
2017-07-16T20:45:45.809Z,3.67
2017-07-16T20:48:13.415Z,3.40
2017-07-16T20:50:40.960Z,3.40
2017-07-16T20:53:08.491Z,3.27
2017-07-16T20:55:36.054Z,3.73
2017-07-16T20:58:03.646Z,3.17
2017-07-16T21:00:31.190Z,2.90
2017-07-16T21:02:58.760Z,3.30
2017-07-16T21:05:26.304Z,2.60
2017-07-16T21:07:53.846Z,3.23
2017-07-16T21:10:21.838Z,3.00
2017-07-16T21:12:49.397Z,2.80
2017-07-16T21:15:16.994Z,2.83
2017-07-16T21:17:44.604Z,2.67
2017-07-16T21:20:12.198Z,2.67
2017-07-16T21:22:39.734Z,2.50
2017-07-16T21:25:07.387Z,2.77
2017-07-16T21:27:34.921Z,2.20
2017-07-16T21:30:02.503Z,2.10
2017-07-16T21:32:30.034Z,2.30
2017-07-16T21:34:57.570Z,2.20
2017-07-16T21:37:25.121Z,2.10
2017-07-16T21:39:52.637Z,2.80
2017-07-16T21:42:20.238Z,2.33
2017-07-16T21:44:47.766Z,2.50
2017-07-16T21:47:15.301Z,2.63
2017-07-16T21:49:42.820Z,2.30
2017-07-16T21:52:10.354Z,2.50
2017-07-16T21:54:37.898Z,2.60
2017-07-16T21:57:05.530Z,2.17
2017-07-16T21:59:33.056Z,2.20
2017-07-16T22:02:00.609Z,2.00
2017-07-16T22:04:28.189Z,2.03
2017-07-16T22:06:55.725Z,2.27
2017-07-16T22:09:23.285Z,2.30
2017-07-16T22:11:50.833Z,1.97
2017-07-16T22:14:18.413Z,2.33
2017-07-16T22:16:45.962Z,2.30
2017-07-16T22:19:13.518Z,1.90
2017-07-16T22:21:41.048Z,2.67
2017-07-16T22:24:08.643Z,2.40
2017-07-16T22:26:36.205Z,2.43
2017-07-16T22:29:03.745Z,2.30
2017-07-16T22:31:31.301Z,2.03
2017-07-16T22:33:58.885Z,2.80
2017-07-16T22:36:26.451Z,2.50
2017-07-16T22:38:53.977Z,2.47
2017-07-16T22:41:21.646Z,3.20
2017-07-16T22:43:49.174Z,2.90
2017-07-16T22:46:16.759Z,2.47
2017-07-16T22:48:44.359Z,2.90
2017-07-16T22:51:11.932Z,2.57
2017-07-16T22:53:39.496Z,2.63
2017-07-16T22:56:07.065Z,2.60
2017-07-16T22:58:34.642Z,2.50
2017-07-16T23:01:02.191Z,2.63
2017-07-16T23:03:29.710Z,2.60
2017-07-16T23:05:57.420Z,2.67
2017-07-16T23:08:25.028Z,2.50
2017-07-16T23:10:52.641Z,2.80
2017-07-16T23:13:20.223Z,2.80
2017-07-16T23:15:47.801Z,2.90
2017-07-16T23:18:16.175Z,2.97
2017-07-16T23:20:44.506Z,2.60
2017-07-16T23:23:12.142Z,2.83
2017-07-16T23:25:39.710Z,3.00
2017-07-16T23:28:07.381Z,2.80
2017-07-16T23:30:34.959Z,3.30
2017-07-16T23:33:02.547Z,3.80
2017-07-16T23:35:30.293Z,2.87
2017-07-16T23:37:57.941Z,2.93
2017-07-16T23:40:25.473Z,2.50
2017-07-16T23:42:53.136Z,2.93
2017-07-16T23:45:20.698Z,2.77
2017-07-16T23:47:48.236Z,3.00
2017-07-16T23:50:15.836Z,2.43
2017-07-16T23:52:43.421Z,3.33
2017-07-16T23:55:11.047Z,2.73
2017-07-16T23:57:38.618Z,3.00
